EGTE/EXT METAR and TAF weather

Enter ICAO airport designator
Station Type Date Time Source
EGTE METAR 2019/01/21 22:20 UTC NOAA

EGTE 212220Z 20011KT 9999 SHRA SCT015 SCT025 07/06 Q1009


Station Type Date Time Source
EGTE Decoded METAR 2019/01/21 22:20 UTC NOAA

Exeter Airport, United Kingdom (EGTE) 50-44N 003-25W
Jan 21, 2019 - 05:20 PM EST / 2019.01.21 2220 UTC
Wind: from the SSW (200 degrees) at 13 MPH (11 KT):0
Visibility: greater than 7 mile(s):0
Sky conditions: partly cloudy
Weather: rain showers
Temperature: 44 F (7 C)
Dew Point: 42 F (6 C)
Relative Humidity: 93%
Pressure (altimeter): 29.80 in. Hg (1009 hPa)
ob: EGTE 212220Z 20011KT 9999 SHRA SCT015 SCT025 07/06 Q1009
cycle: 22

Station Type Date Time Source
EGTE TAF 2012/04/19 12:15 UTC NOAA

TAF TAF EGTE 191401Z 1912/1924 31016KT 9999 SCT030 SCT035 PROB40
TEMPO 1915/1918 7000 SHRA BKN014


Example: see airport list